Alpena, MI (49707)

4:06 PM EST on February 10, 2016 (GMT -0500)
NOS_NWLON | | Change Station
CLOSE
Current Station
Personal Weather Station
Location: Alpena, MI
Elevation: 587 ft
Nearby Weather Stations

Elev 587 ft 45.06 °N, 83.43 °W | Updated 30 minutes ago

Overcast
Overcast
11 °F
Feels Like -6 °F
N
17
Wind Variable Wind from NNW
Gusts 23.0 mph

Today
High -- | Low -- °F
--% Chance of Precip.
Yesterday
High -- | Low -- °F
Precip. -- in
Pressure 29.88 in
Visibility 4.0 miles
Clouds Scattered Clouds 3200 ft
Overcast 3900 ft
Windchill -6 °F
Dew Point Not available.
Humidity Not available.
Rainfall in
Snow Depth Not available.
7:42 AM 5:53 PM
Waxing Crescent, 7% visible
METAR KAPN 102054Z AUTO 30010G16KT 4SM -SN SCT032 OVC039 M12/M16 A2983 RMK AO2 UPB42E50SNB20E42B50 SLP116 P0000 60000 T11171161 53005
Pressure 29.88 in
Visibility 4.0 miles
Clouds Scattered Clouds 3200 ft
Overcast 3900 ft
Windchill -6 °F
Dew Point Not available.
Humidity Not available.
Rainfall in
Snow Depth Not available.
7:42 AM 5:53 PM
Waxing Crescent, 7% visible
METAR KAPN 102054Z AUTO 30010G16KT 4SM -SN SCT032 OVC039 M12/M16 A2983 RMK AO2 UPB42E50SNB20E42B50 SLP116 P0000 60000 T11171161 53005

10-Day Weather Forecast

Almanac

Astronomy

Feb. 10, 2016 Rise Set
Actual Time
Civil Twilight
Nautical Twilight
Astronomical Twilight
Moon
Length of Visible Light
Length of Day
Tomorrow will be .
, % of the Moon is Illuminated

Today's Extremes

State Highs State Lows

Community

WunderPhotos

Upload Photos

1,891,947 photos uploaded!

WunderBlog® & News

Nearby

Air Quality

  Air Quality AQ Index Pollutant
Not available.

Snow Depth

Station Depth Elevation

Earthquake Activity

City Distance Mag. Time & Date
Minimum magnitude displayed is 2.5.

Coastal Water Temperatures

Place Temperature

Stations

Nearby Weather Stations

Station Location Temp. Windchill Dew Point Humidity Wind Precip. Elev Updated Type
                   

Watches & Warnings

There are currently no watches in effect.